sensor_id;sensor_type;location;lat;lon;timestamp;temperature;humidity
11246;DHT22;59870;50.106;8.580;2022-07-29T00:00:25;26.30;38.00
11246;DHT22;59870;50.106;8.580;2022-07-29T00:02:53;25.90;37.80
11246;DHT22;59870;50.106;8.580;2022-07-29T00:05:20;25.90;37.90
11246;DHT22;59870;50.106;8.580;2022-07-29T00:07:48;26.10;38.60
11246;DHT22;59870;50.106;8.580;2022-07-29T00:10:15;26.10;37.80
11246;DHT22;59870;50.106;8.580;2022-07-29T00:12:42;26.00;37.80
11246;DHT22;59870;50.106;8.580;2022-07-29T00:15:10;26.00;38.70
11246;DHT22;59870;50.106;8.580;2022-07-29T00:17:38;26.00;42.00
11246;DHT22;59870;50.106;8.580;2022-07-29T00:20:06;26.60;43.00
11246;DHT22;59870;50.106;8.580;2022-07-29T00:22:37;26.00;41.90
11246;DHT22;59870;50.106;8.580;2022-07-29T00:25:06;26.10;42.20
11246;DHT22;59870;50.106;8.580;2022-07-29T00:27:35;26.10;41.00
11246;DHT22;59870;50.106;8.580;2022-07-29T00:30:03;26.30;43.60
11246;DHT22;59870;50.106;8.580;2022-07-29T00:32:31;26.10;43.30
11246;DHT22;59870;50.106;8.580;2022-07-29T00:34:58;26.80;43.20
11246;DHT22;59870;50.106;8.580;2022-07-29T00:37:44;26.20;41.10
11246;DHT22;59870;50.106;8.580;2022-07-29T00:40:12;26.10;42.40
11246;DHT22;59870;50.106;8.580;2022-07-29T00:42:50;26.10;40.30
11246;DHT22;59870;50.106;8.580;2022-07-29T00:45:19;26.10;40.60
11246;DHT22;59870;50.106;8.580;2022-07-29T00:47:47;26.60;40.00
11246;DHT22;59870;50.106;8.580;2022-07-29T00:50:14;26.10;39.30
11246;DHT22;59870;50.106;8.580;2022-07-29T00:52:42;26.10;39.30
11246;DHT22;59870;50.106;8.580;2022-07-29T00:55:15;26.10;39.20
11246;DHT22;59870;50.106;8.580;2022-07-29T00:57:43;26.10;39.20
11246;DHT22;59870;50.106;8.580;2022-07-29T01:00:18;26.00;39.40
11246;DHT22;59870;50.106;8.580;2022-07-29T01:02:46;26.00;39.40
11246;DHT22;59870;50.106;8.580;2022-07-29T01:05:22;25.90;39.20
11246;DHT22;59870;50.106;8.580;2022-07-29T01:07:52;25.90;39.30
11246;DHT22;59870;50.106;8.580;2022-07-29T01:10:21;25.80;39.10
11246;DHT22;59870;50.106;8.580;2022-07-29T01:12:51;25.80;39.10
11246;DHT22;59870;50.106;8.580;2022-07-29T01:15:20;25.80;38.80
11246;DHT22;59870;50.106;8.580;2022-07-29T01:18:03;25.80;38.60
11246;DHT22;59870;50.106;8.580;2022-07-29T01:29:24;25.70;38.20
11246;DHT22;59870;50.106;8.580;2022-07-29T01:32:10;25.80;38.50
11246;DHT22;59870;50.106;8.580;2022-07-29T01:34:59;25.80;38.20
11246;DHT22;59870;50.106;8.580;2022-07-29T01:40:24;25.70;38.20
11246;DHT22;59870;50.106;8.580;2022-07-29T01:42:56;25.80;38.20
11246;DHT22;59870;50.106;8.580;2022-07-29T01:45:38;25.70;38.30
11246;DHT22;59870;50.106;8.580;2022-07-29T01:51:14;25.70;38.20
11246;DHT22;59870;50.106;8.580;2022-07-29T01:56:20;25.60;38.20
11246;DHT22;59870;50.106;8.580;2022-07-29T01:58:49;26.00;38.60
11246;DHT22;59870;50.106;8.580;2022-07-29T02:01:20;25.60;38.40
11246;DHT22;59870;50.106;8.580;2022-07-29T02:03:49;25.50;38.60
11246;DHT22;59870;50.106;8.580;2022-07-29T02:06:21;26.00;39.10
11246;DHT22;59870;50.106;8.580;2022-07-29T02:08:51;25.30;38.90
11246;DHT22;59870;50.106;8.580;2022-07-29T02:11:19;25.80;39.50
11246;DHT22;59870;50.106;8.580;2022-07-29T02:13:47;25.20;39.60
11246;DHT22;59870;50.106;8.580;2022-07-29T02:16:17;25.10;40.00
11246;DHT22;59870;50.106;8.580;2022-07-29T02:18:48;25.60;40.50
11246;DHT22;59870;50.106;8.580;2022-07-29T02:21:21;24.90;40.40
11246;DHT22;59870;50.106;8.580;2022-07-29T02:23:52;24.90;40.90
11246;DHT22;59870;50.106;8.580;2022-07-29T02:26:21;24.90;41.20
11246;DHT22;59870;50.106;8.580;2022-07-29T02:28:52;24.80;41.50
11246;DHT22;59870;50.106;8.580;2022-07-29T02:31:24;24.90;41.60
11246;DHT22;59870;50.106;8.580;2022-07-29T02:33:53;25.30;42.10
11246;DHT22;59870;50.106;8.580;2022-07-29T02:36:22;24.70;42.00
11246;DHT22;59870;50.106;8.580;2022-07-29T02:38:51;24.40;42.00
11246;DHT22;59870;50.106;8.580;2022-07-29T02:41:22;24.70;42.50
11246;DHT22;59870;50.106;8.580;2022-07-29T02:43:55;24.90;42.70
11246;DHT22;59870;50.106;8.580;2022-07-29T02:46:30;25.20;43.40
11246;DHT22;59870;50.106;8.580;2022-07-29T02:49:31;24.70;43.10
11246;DHT22;59870;50.106;8.580;2022-07-29T02:52:02;24.60;43.10
11246;DHT22;59870;50.106;8.580;2022-07-29T02:54:42;24.60;43.60
11246;DHT22;59870;50.106;8.580;2022-07-29T02:57:19;24.60;43.80
11246;DHT22;59870;50.106;8.580;2022-07-29T02:59:50;24.60;44.10
11246;DHT22;59870;50.106;8.580;2022-07-29T03:02:19;24.60;44.40
11246;DHT22;59870;50.106;8.580;2022-07-29T03:04:48;25.10;45.20
11246;DHT22;59870;50.106;8.580;2022-07-29T03:07:18;25.10;45.20
11246;DHT22;59870;50.106;8.580;2022-07-29T03:09:47;24.40;44.80
11246;DHT22;59870;50.106;8.580;2022-07-29T03:12:16;24.40;44.90
11246;DHT22;59870;50.106;8.580;2022-07-29T03:14:44;24.60;45.20
11246;DHT22;59870;50.106;8.580;2022-07-29T03:17:12;24.40;45.40
11246;DHT22;59870;50.106;8.580;2022-07-29T03:19:40;24.40;45.40
11246;DHT22;59870;50.106;8.580;2022-07-29T03:22:09;24.40;45.40
11246;DHT22;59870;50.106;8.580;2022-07-29T03:24:37;24.40;45.60
11246;DHT22;59870;50.106;8.580;2022-07-29T03:27:05;24.50;45.70
11246;DHT22;59870;50.106;8.580;2022-07-29T03:29:32;24.40;45.60
11246;DHT22;59870;50.106;8.580;2022-07-29T03:32:05;24.40;46.00
11246;DHT22;59870;50.106;8.580;2022-07-29T03:34:36;24.40;46.30
11246;DHT22;59870;50.106;8.580;2022-07-29T03:37:05;24.30;46.50
11246;DHT22;59870;50.106;8.580;2022-07-29T03:39:38;24.20;47.00
11246;DHT22;59870;50.106;8.580;2022-07-29T03:42:09;24.20;47.10
11246;DHT22;59870;50.106;8.580;2022-07-29T03:44:38;24.20;47.60
11246;DHT22;59870;50.106;8.580;2022-07-29T03:47:07;24.10;47.80
11246;DHT22;59870;50.106;8.580;2022-07-29T03:49:36;24.00;48.20
11246;DHT22;59870;50.106;8.580;2022-07-29T03:52:05;24.60;49.20
11246;DHT22;59870;50.106;8.580;2022-07-29T03:54:33;23.90;48.80
11246;DHT22;59870;50.106;8.580;2022-07-29T03:57:01;23.80;49.30
11246;DHT22;59870;50.106;8.580;2022-07-29T03:59:30;23.70;49.40
11246;DHT22;59870;50.106;8.580;2022-07-29T04:02:02;23.70;49.40
11246;DHT22;59870;50.106;8.580;2022-07-29T04:04:33;23.90;50.20
11246;DHT22;59870;50.106;8.580;2022-07-29T04:07:01;24.30;50.40
11246;DHT22;59870;50.106;8.580;2022-07-29T04:09:28;23.60;50.30
11246;DHT22;59870;50.106;8.580;2022-07-29T04:11:56;23.50;50.40
11246;DHT22;59870;50.106;8.580;2022-07-29T04:14:31;23.50;50.60
11246;DHT22;59870;50.106;8.580;2022-07-29T04:17:00;23.40;50.80
11246;DHT22;59870;50.106;8.580;2022-07-29T04:19:28;23.40;50.90
11246;DHT22;59870;50.106;8.580;2022-07-29T04:21:57;24.00;51.30
11246;DHT22;59870;50.106;8.580;2022-07-29T04:24:25;23.40;50.70
11246;DHT22;59870;50.106;8.580;2022-07-29T04:26:53;23.40;51.00
11246;DHT22;59870;50.106;8.580;2022-07-29T04:29:21;23.40;51.40
11246;DHT22;59870;50.106;8.580;2022-07-29T04:31:48;23.50;51.40
11246;DHT22;59870;50.106;8.580;2022-07-29T04:34:16;23.30;51.20
11246;DHT22;59870;50.106;8.580;2022-07-29T04:36:44;23.90;51.70
11246;DHT22;59870;50.106;8.580;2022-07-29T04:39:11;24.00;52.00
11246;DHT22;59870;50.106;8.580;2022-07-29T04:41:39;23.30;51.50
11246;DHT22;59870;50.106;8.580;2022-07-29T04:44:09;23.30;51.30
11246;DHT22;59870;50.106;8.580;2022-07-29T04:46:36;23.50;51.50
11246;DHT22;59870;50.106;8.580;2022-07-29T04:49:04;23.20;51.30
11246;DHT22;59870;50.106;8.580;2022-07-29T04:51:31;23.30;51.20
11246;DHT22;59870;50.106;8.580;2022-07-29T04:53:59;23.60;51.60
11246;DHT22;59870;50.106;8.580;2022-07-29T04:56:27;23.20;51.10
11246;DHT22;59870;50.106;8.580;2022-07-29T04:58:54;23.30;51.10
11246;DHT22;59870;50.106;8.580;2022-07-29T05:01:21;23.10;51.00
11246;DHT22;59870;50.106;8.580;2022-07-29T05:03:48;23.10;50.80
11246;DHT22;59870;50.106;8.580;2022-07-29T05:06:16;23.30;50.90
11246;DHT22;59870;50.106;8.580;2022-07-29T05:08:44;23.70;51.50
11246;DHT22;59870;50.106;8.580;2022-07-29T05:11:11;23.20;51.40
11246;DHT22;59870;50.106;8.580;2022-07-29T05:13:43;23.30;51.80
11246;DHT22;59870;50.106;8.580;2022-07-29T05:16:13;23.30;51.40
11246;DHT22;59870;50.106;8.580;2022-07-29T05:18:41;23.40;51.00
11246;DHT22;59870;50.106;8.580;2022-07-29T05:21:09;23.50;51.10
11246;DHT22;59870;50.106;8.580;2022-07-29T05:23:36;23.50;50.90
11246;DHT22;59870;50.106;8.580;2022-07-29T05:26:04;23.60;50.50
11246;DHT22;59870;50.106;8.580;2022-07-29T05:28:34;23.60;50.40
11246;DHT22;59870;50.106;8.580;2022-07-29T05:31:02;23.70;50.40
11246;DHT22;59870;50.106;8.580;2022-07-29T05:33:29;23.90;50.10
11246;DHT22;59870;50.106;8.580;2022-07-29T05:36:06;24.20;49.90
11246;DHT22;59870;50.106;8.580;2022-07-29T05:38:35;24.20;49.00
11246;DHT22;59870;50.106;8.580;2022-07-29T05:41:04;24.50;48.60
11246;DHT22;59870;50.106;8.580;2022-07-29T05:43:31;24.80;47.90
11246;DHT22;59870;50.106;8.580;2022-07-29T05:45:59;24.90;47.30
11246;DHT22;59870;50.106;8.580;2022-07-29T05:48:27;25.10;47.20
11246;DHT22;59870;50.106;8.580;2022-07-29T05:50:55;25.20;47.00
11246;DHT22;59870;50.106;8.580;2022-07-29T05:53:23;25.30;46.50
11246;DHT22;59870;50.106;8.580;2022-07-29T05:55:50;25.30;46.10
11246;DHT22;59870;50.106;8.580;2022-07-29T05:58:19;25.40;45.60
11246;DHT22;59870;50.106;8.580;2022-07-29T06:00:46;25.50;45.80
11246;DHT22;59870;50.106;8.580;2022-07-29T06:03:14;25.60;45.70
11246;DHT22;59870;50.106;8.580;2022-07-29T06:05:41;26.20;45.80
11246;DHT22;59870;50.106;8.580;2022-07-29T06:08:08;26.00;45.30
11246;DHT22;59870;50.106;8.580;2022-07-29T06:10:36;26.30;44.80
11246;DHT22;59870;50.106;8.580;2022-07-29T06:13:03;26.60;44.00
11246;DHT22;59870;50.106;8.580;2022-07-29T06:15:59;27.00;43.30
11246;DHT22;59870;50.106;8.580;2022-07-29T06:19:02;27.30;42.70
11246;DHT22;59870;50.106;8.580;2022-07-29T06:21:31;27.70;42.10
11246;DHT22;59870;50.106;8.580;2022-07-29T06:23:59;28.10;41.20
11246;DHT22;59870;50.106;8.580;2022-07-29T06:26:27;28.60;40.70
11246;DHT22;59870;50.106;8.580;2022-07-29T06:28:58;28.70;40.00
11246;DHT22;59870;50.106;8.580;2022-07-29T06:31:25;29.00;39.70
11246;DHT22;59870;50.106;8.580;2022-07-29T06:33:53;29.40;39.00
11246;DHT22;59870;50.106;8.580;2022-07-29T06:36:21;30.20;38.80
11246;DHT22;59870;50.106;8.580;2022-07-29T06:38:51;30.00;36.90
11246;DHT22;59870;50.106;8.580;2022-07-29T06:41:19;30.30;36.70
11246;DHT22;59870;50.106;8.580;2022-07-29T06:43:47;30.50;36.30
11246;DHT22;59870;50.106;8.580;2022-07-29T06:46:22;30.70;36.10
11246;DHT22;59870;50.106;8.580;2022-07-29T06:48:50;30.90;35.50
11246;DHT22;59870;50.106;8.580;2022-07-29T06:51:19;31.30;35.60
11246;DHT22;59870;50.106;8.580;2022-07-29T06:53:52;31.40;35.20
11246;DHT22;59870;50.106;8.580;2022-07-29T06:56:33;31.70;34.10
11246;DHT22;59870;50.106;8.580;2022-07-29T06:59:07;31.90;33.90
11246;DHT22;59870;50.106;8.580;2022-07-29T07:01:36;31.90;33.50
11246;DHT22;59870;50.106;8.580;2022-07-29T07:04:04;32.20;33.20
11246;DHT22;59870;50.106;8.580;2022-07-29T07:06:32;32.40;32.40
11246;DHT22;59870;50.106;8.580;2022-07-29T07:08:59;33.00;32.10
11246;DHT22;59870;50.106;8.580;2022-07-29T07:11:27;32.60;31.90
11246;DHT22;59870;50.106;8.580;2022-07-29T07:13:54;32.80;31.80
11246;DHT22;59870;50.106;8.580;2022-07-29T07:16:29;33.00;31.10
11246;DHT22;59870;50.106;8.580;2022-07-29T07:18:56;33.20;31.30
11246;DHT22;59870;50.106;8.580;2022-07-29T07:21:24;33.40;31.50
11246;DHT22;59870;50.106;8.580;2022-07-29T07:23:51;33.80;30.60
11246;DHT22;59870;50.106;8.580;2022-07-29T07:26:38;34.00;29.80
11246;DHT22;59870;50.106;8.580;2022-07-29T07:29:07;34.30;29.60
11246;DHT22;59870;50.106;8.580;2022-07-29T07:31:36;34.20;29.50
11246;DHT22;59870;50.106;8.580;2022-07-29T07:34:04;34.40;30.00
11246;DHT22;59870;50.106;8.580;2022-07-29T07:36:31;34.60;29.60
11246;DHT22;59870;50.106;8.580;2022-07-29T07:38:58;34.60;29.00
11246;DHT22;59870;50.106;8.580;2022-07-29T07:41:26;34.80;28.90
11246;DHT22;59870;50.106;8.580;2022-07-29T07:43:58;35.00;29.40
11246;DHT22;59870;50.106;8.580;2022-07-29T07:46:26;35.00;28.30
11246;DHT22;59870;50.106;8.580;2022-07-29T07:48:56;36.00;28.70
11246;DHT22;59870;50.106;8.580;2022-07-29T07:51:23;36.00;27.70
11246;DHT22;59870;50.106;8.580;2022-07-29T07:53:51;36.10;27.80
11246;DHT22;59870;50.106;8.580;2022-07-29T07:56:19;36.20;27.60
11246;DHT22;59870;50.106;8.580;2022-07-29T07:58:48;36.40;27.50
11246;DHT22;59870;50.106;8.580;2022-07-29T08:01:16;36.60;27.20
11246;DHT22;59870;50.106;8.580;2022-07-29T08:03:46;36.80;27.60
11246;DHT22;59870;50.106;8.580;2022-07-29T08:06:13;37.00;26.80
11246;DHT22;59870;50.106;8.580;2022-07-29T08:08:41;37.10;26.60
11246;DHT22;59870;50.106;8.580;2022-07-29T08:11:08;37.30;26.20
11246;DHT22;59870;50.106;8.580;2022-07-29T08:13:37;37.50;26.10
11246;DHT22;59870;50.106;8.580;2022-07-29T08:16:05;37.90;26.30
11246;DHT22;59870;50.106;8.580;2022-07-29T08:18:41;37.90;25.80
11246;DHT22;59870;50.106;8.580;2022-07-29T08:21:09;38.10;25.20
11246;DHT22;59870;50.106;8.580;2022-07-29T08:23:36;38.40;25.40
11246;DHT22;59870;50.106;8.580;2022-07-29T08:26:19;38.60;25.40
11246;DHT22;59870;50.106;8.580;2022-07-29T08:28:49;38.50;24.60
11246;DHT22;59870;50.106;8.580;2022-07-29T08:31:18;38.60;25.10
11246;DHT22;59870;50.106;8.580;2022-07-29T08:33:45;38.60;24.80
11246;DHT22;59870;50.106;8.580;2022-07-29T08:36:13;38.50;25.10
11246;DHT22;59870;50.106;8.580;2022-07-29T08:38:40;38.60;24.90
11246;DHT22;59870;50.106;8.580;2022-07-29T08:41:08;38.80;24.80
11246;DHT22;59870;50.106;8.580;2022-07-29T08:43:35;38.90;25.10
11246;DHT22;59870;50.106;8.580;2022-07-29T08:46:05;39.10;24.70
11246;DHT22;59870;50.106;8.580;2022-07-29T08:48:51;39.70;24.70
11246;DHT22;59870;50.106;8.580;2022-07-29T08:51:19;39.60;24.40
11246;DHT22;59870;50.106;8.580;2022-07-29T08:54:16;39.70;24.00
11246;DHT22;59870;50.106;8.580;2022-07-29T08:56:48;39.90;24.80
11246;DHT22;59870;50.106;8.580;2022-07-29T08:59:19;40.10;24.20
11246;DHT22;59870;50.106;8.580;2022-07-29T09:01:52;40.20;23.70
11246;DHT22;59870;50.106;8.580;2022-07-29T09:04:21;40.20;23.40
11246;DHT22;59870;50.106;8.580;2022-07-29T09:06:52;40.50;23.90
11246;DHT22;59870;50.106;8.580;2022-07-29T09:09:21;40.80;24.00
11246;DHT22;59870;50.106;8.580;2022-07-29T09:11:59;41.10;23.10
11246;DHT22;59870;50.106;8.580;2022-07-29T09:14:27;41.30;22.90
11246;DHT22;59870;50.106;8.580;2022-07-29T09:16:56;41.50;22.90
11246;DHT22;59870;50.106;8.580;2022-07-29T09:19:29;41.80;22.80
11246;DHT22;59870;50.106;8.580;2022-07-29T09:21:59;41.80;22.50
11246;DHT22;59870;50.106;8.580;2022-07-29T09:24:59;41.80;22.60
11246;DHT22;59870;50.106;8.580;2022-07-29T09:27:26;42.10;23.50
11246;DHT22;59870;50.106;8.580;2022-07-29T09:30:01;42.40;22.30
11246;DHT22;59870;50.106;8.580;2022-07-29T09:32:30;42.90;22.30
11246;DHT22;59870;50.106;8.580;2022-07-29T09:35:20;42.70;21.80
11246;DHT22;59870;50.106;8.580;2022-07-29T09:37:48;42.70;21.80
11246;DHT22;59870;50.106;8.580;2022-07-29T09:40:27;42.70;21.40
11246;DHT22;59870;50.106;8.580;2022-07-29T09:42:55;42.40;21.70
11246;DHT22;59870;50.106;8.580;2022-07-29T09:45:28;42.50;21.80
11246;DHT22;59870;50.106;8.580;2022-07-29T09:47:57;42.40;22.30
11246;DHT22;59870;50.106;8.580;2022-07-29T09:50:40;42.30;22.50
11246;DHT22;59870;50.106;8.580;2022-07-29T09:53:08;42.30;22.30
11246;DHT22;59870;50.106;8.580;2022-07-29T09:55:51;42.40;22.00
11246;DHT22;59870;50.106;8.580;2022-07-29T09:58:21;41.90;22.30
11246;DHT22;59870;50.106;8.580;2022-07-29T10:00:51;41.40;23.00
11246;DHT22;59870;50.106;8.580;2022-07-29T10:03:19;41.00;23.20
11246;DHT22;59870;50.106;8.580;2022-07-29T10:06:09;40.60;23.90
11246;DHT22;59870;50.106;8.580;2022-07-29T10:08:37;40.10;24.00
11246;DHT22;59870;50.106;8.580;2022-07-29T10:11:16;39.70;24.30
11246;DHT22;59870;50.106;8.580;2022-07-29T10:13:45;39.00;24.90
11246;DHT22;59870;50.106;8.580;2022-07-29T10:16:14;38.50;25.20
11246;DHT22;59870;50.106;8.580;2022-07-29T10:18:43;38.20;25.90
11246;DHT22;59870;50.106;8.580;2022-07-29T10:21:11;37.80;26.20
11246;DHT22;59870;50.106;8.580;2022-07-29T10:23:59;37.50;26.60
11246;DHT22;59870;50.106;8.580;2022-07-29T10:26:29;37.40;27.20
11246;DHT22;59870;50.106;8.580;2022-07-29T10:28:56;37.10;27.20
11246;DHT22;59870;50.106;8.580;2022-07-29T10:31:29;36.80;27.30
11246;DHT22;59870;50.106;8.580;2022-07-29T10:34:15;36.60;27.90
11246;DHT22;59870;50.106;8.580;2022-07-29T10:37:14;36.40;27.90
11246;DHT22;59870;50.106;8.580;2022-07-29T10:40:17;36.20;28.10
11246;DHT22;59870;50.106;8.580;2022-07-29T10:43:24;36.10;28.50
11246;DHT22;59870;50.106;8.580;2022-07-29T10:45:57;35.80;28.80
11246;DHT22;59870;50.106;8.580;2022-07-29T10:48:26;35.60;29.60
11246;DHT22;59870;50.106;8.580;2022-07-29T10:50:56;35.50;29.40
11246;DHT22;59870;50.106;8.580;2022-07-29T10:53:24;35.50;29.50
11246;DHT22;59870;50.106;8.580;2022-07-29T10:55:59;35.40;29.10
11246;DHT22;59870;50.106;8.580;2022-07-29T10:58:33;35.40;29.30
11246;DHT22;59870;50.106;8.580;2022-07-29T11:01:28;35.40;29.70
11246;DHT22;59870;50.106;8.580;2022-07-29T11:04:05;35.30;29.20
11246;DHT22;59870;50.106;8.580;2022-07-29T11:09:32;35.30;29.80
11246;DHT22;59870;50.106;8.580;2022-07-29T11:15:07;35.30;30.20
11246;DHT22;59870;50.106;8.580;2022-07-29T11:20:46;35.20;29.80
11246;DHT22;59870;50.106;8.580;2022-07-29T11:23:26;35.10;30.50
11246;DHT22;59870;50.106;8.580;2022-07-29T11:31:35;34.60;30.00
11246;DHT22;59870;50.106;8.580;2022-07-29T11:45:08;34.80;31.70
11246;DHT22;59870;50.106;8.580;2022-07-29T11:47:57;34.40;31.50
11246;DHT22;59870;50.106;8.580;2022-07-29T11:50:45;34.40;32.10
11246;DHT22;59870;50.106;8.580;2022-07-29T11:53:14;34.40;31.50
11246;DHT22;59870;50.106;8.580;2022-07-29T11:55:42;34.40;31.80
11246;DHT22;59870;50.106;8.580;2022-07-29T11:58:24;34.50;31.50
11246;DHT22;59870;50.106;8.580;2022-07-29T12:00:53;34.50;32.10
11246;DHT22;59870;50.106;8.580;2022-07-29T12:03:26;34.50;31.30
11246;DHT22;59870;50.106;8.580;2022-07-29T12:06:12;34.60;31.00
11246;DHT22;59870;50.106;8.580;2022-07-29T12:08:44;34.40;31.00
11246;DHT22;59870;50.106;8.580;2022-07-29T12:11:18;34.40;31.60
11246;DHT22;59870;50.106;8.580;2022-07-29T12:13:48;34.20;31.20
11246;DHT22;59870;50.106;8.580;2022-07-29T12:16:16;34.10;31.40
11246;DHT22;59870;50.106;8.580;2022-07-29T12:18:59;34.10;31.20
11246;DHT22;59870;50.106;8.580;2022-07-29T12:21:48;34.10;31.30
11246;DHT22;59870;50.106;8.580;2022-07-29T12:24:23;34.10;32.00
11246;DHT22;59870;50.106;8.580;2022-07-29T12:26:55;34.10;31.60
11246;DHT22;59870;50.106;8.580;2022-07-29T12:29:24;34.10;31.50
11246;DHT22;59870;50.106;8.580;2022-07-29T12:32:03;34.00;31.40
11246;DHT22;59870;50.106;8.580;2022-07-29T12:34:32;34.00;31.50
11246;DHT22;59870;50.106;8.580;2022-07-29T12:37:00;34.00;31.90
11246;DHT22;59870;50.106;8.580;2022-07-29T12:39:28;34.40;32.00
11246;DHT22;59870;50.106;8.580;2022-07-29T12:41:56;33.80;31.70
11246;DHT22;59870;50.106;8.580;2022-07-29T12:44:45;33.70;31.80
11246;DHT22;59870;50.106;8.580;2022-07-29T12:47:13;33.70;31.90
11246;DHT22;59870;50.106;8.580;2022-07-29T12:49:41;33.70;32.50
11246;DHT22;59870;50.106;8.580;2022-07-29T12:54:54;33.80;32.00
11246;DHT22;59870;50.106;8.580;2022-07-29T12:57:21;33.70;31.60
11246;DHT22;59870;50.106;8.580;2022-07-29T13:00:10;33.70;31.90
11246;DHT22;59870;50.106;8.580;2022-07-29T13:02:39;33.70;31.80
11246;DHT22;59870;50.106;8.580;2022-07-29T13:05:07;33.70;32.40
11246;DHT22;59870;50.106;8.580;2022-07-29T13:07:38;33.70;31.70
11246;DHT22;59870;50.106;8.580;2022-07-29T13:10:23;33.60;31.50
11246;DHT22;59870;50.106;8.580;2022-07-29T13:13:03;33.70;32.80
11246;DHT22;59870;50.106;8.580;2022-07-29T13:15:31;33.70;32.60
11246;DHT22;59870;50.106;8.580;2022-07-29T13:17:59;33.70;32.10
11246;DHT22;59870;50.106;8.580;2022-07-29T13:20:28;33.80;32.00
11246;DHT22;59870;50.106;8.580;2022-07-29T13:23:00;33.80;32.50
11246;DHT22;59870;50.106;8.580;2022-07-29T13:25:31;33.90;32.90
11246;DHT22;59870;50.106;8.580;2022-07-29T13:27:59;33.90;32.70
11246;DHT22;59870;50.106;8.580;2022-07-29T13:30:26;33.80;32.30
11246;DHT22;59870;50.106;8.580;2022-07-29T13:32:54;33.80;32.40
11246;DHT22;59870;50.106;8.580;2022-07-29T13:35:22;33.80;31.60
11246;DHT22;59870;50.106;8.580;2022-07-29T13:37:49;33.80;31.90
11246;DHT22;59870;50.106;8.580;2022-07-29T13:40:18;33.80;31.80
11246;DHT22;59870;50.106;8.580;2022-07-29T13:42:45;33.70;31.80
11246;DHT22;59870;50.106;8.580;2022-07-29T13:45:45;33.70;32.00
11246;DHT22;59870;50.106;8.580;2022-07-29T13:48:12;33.80;31.60
11246;DHT22;59870;50.106;8.580;2022-07-29T13:50:40;33.70;32.10
11246;DHT22;59870;50.106;8.580;2022-07-29T13:53:07;33.70;31.70
11246;DHT22;59870;50.106;8.580;2022-07-29T13:55:34;33.70;31.80
11246;DHT22;59870;50.106;8.580;2022-07-29T13:58:02;33.70;32.40
11246;DHT22;59870;50.106;8.580;2022-07-29T14:00:30;33.70;32.40
11246;DHT22;59870;50.106;8.580;2022-07-29T14:02:58;34.10;32.60
11246;DHT22;59870;50.106;8.580;2022-07-29T14:05:25;33.70;32.60
11246;DHT22;59870;50.106;8.580;2022-07-29T14:07:53;33.70;32.20
11246;DHT22;59870;50.106;8.580;2022-07-29T14:10:20;34.30;32.60
11246;DHT22;59870;50.106;8.580;2022-07-29T14:12:47;33.80;32.50
11246;DHT22;59870;50.106;8.580;2022-07-29T14:15:15;33.90;32.30
11246;DHT22;59870;50.106;8.580;2022-07-29T14:17:42;33.90;32.40
11246;DHT22;59870;50.106;8.580;2022-07-29T14:20:10;34.00;32.10
11246;DHT22;59870;50.106;8.580;2022-07-29T14:22:37;33.90;32.10
11246;DHT22;59870;50.106;8.580;2022-07-29T14:25:09;33.90;32.50
11246;DHT22;59870;50.106;8.580;2022-07-29T14:27:42;34.00;34.00
11246;DHT22;59870;50.106;8.580;2022-07-29T14:30:10;33.90;34.50
11246;DHT22;59870;50.106;8.580;2022-07-29T14:32:38;33.70;35.40
11246;DHT22;59870;50.106;8.580;2022-07-29T14:35:06;33.70;34.90
11246;DHT22;59870;50.106;8.580;2022-07-29T14:37:35;33.60;35.40
11246;DHT22;59870;50.106;8.580;2022-07-29T14:40:07;33.50;36.20
11246;DHT22;59870;50.106;8.580;2022-07-29T14:42:35;33.50;37.50
11246;DHT22;59870;50.106;8.580;2022-07-29T14:45:05;33.40;36.90
11246;DHT22;59870;50.106;8.580;2022-07-29T14:47:34;33.30;37.30
11246;DHT22;59870;50.106;8.580;2022-07-29T14:50:02;33.40;37.40
11246;DHT22;59870;50.106;8.580;2022-07-29T14:52:29;33.30;37.40
11246;DHT22;59870;50.106;8.580;2022-07-29T14:55:05;33.30;38.00
11246;DHT22;59870;50.106;8.580;2022-07-29T14:57:46;33.30;36.90
11246;DHT22;59870;50.106;8.580;2022-07-29T15:00:14;33.30;36.80
11246;DHT22;59870;50.106;8.580;2022-07-29T15:02:41;33.20;36.90
11246;DHT22;59870;50.106;8.580;2022-07-29T15:05:31;33.10;36.80
11246;DHT22;59870;50.106;8.580;2022-07-29T15:07:59;33.10;35.90
11246;DHT22;59870;50.106;8.580;2022-07-29T15:10:27;33.10;34.20
11246;DHT22;59870;50.106;8.580;2022-07-29T15:12:55;33.00;33.90
11246;DHT22;59870;50.106;8.580;2022-07-29T15:15:23;33.00;34.20
11246;DHT22;59870;50.106;8.580;2022-07-29T15:17:51;33.00;34.40
11246;DHT22;59870;50.106;8.580;2022-07-29T15:20:18;33.00;34.40
11246;DHT22;59870;50.106;8.580;2022-07-29T15:22:46;33.10;34.40
11246;DHT22;59870;50.106;8.580;2022-07-29T15:25:14;33.10;33.90
11246;DHT22;59870;50.106;8.580;2022-07-29T15:27:41;33.20;33.40
11246;DHT22;59870;50.106;8.580;2022-07-29T15:30:15;33.20;34.30
11246;DHT22;59870;50.106;8.580;2022-07-29T15:33:02;33.30;33.10
11246;DHT22;59870;50.106;8.580;2022-07-29T15:35:30;33.30;32.40
11246;DHT22;59870;50.106;8.580;2022-07-29T15:37:57;33.30;31.30
11246;DHT22;59870;50.106;8.580;2022-07-29T15:40:25;33.40;31.20
11246;DHT22;59870;50.106;8.580;2022-07-29T15:42:53;33.40;30.60
11246;DHT22;59870;50.106;8.580;2022-07-29T15:45:20;33.50;30.30
11246;DHT22;59870;50.106;8.580;2022-07-29T15:47:48;33.50;30.60
11246;DHT22;59870;50.106;8.580;2022-07-29T15:50:15;33.50;30.60
11246;DHT22;59870;50.106;8.580;2022-07-29T15:52:43;33.40;29.70
11246;DHT22;59870;50.106;8.580;2022-07-29T15:55:10;33.40;30.10
11246;DHT22;59870;50.106;8.580;2022-07-29T15:57:37;33.50;30.00
11246;DHT22;59870;50.106;8.580;2022-07-29T16:00:07;33.40;29.70
11246;DHT22;59870;50.106;8.580;2022-07-29T16:02:35;33.50;29.70
11246;DHT22;59870;50.106;8.580;2022-07-29T16:05:03;33.40;30.30
11246;DHT22;59870;50.106;8.580;2022-07-29T16:07:35;33.40;30.70
11246;DHT22;59870;50.106;8.580;2022-07-29T16:10:04;33.40;30.90
11246;DHT22;59870;50.106;8.580;2022-07-29T16:12:33;33.40;31.30
11246;DHT22;59870;50.106;8.580;2022-07-29T16:15:10;33.30;31.80
11246;DHT22;59870;50.106;8.580;2022-07-29T16:17:38;33.30;31.90
11246;DHT22;59870;50.106;8.580;2022-07-29T16:20:06;33.20;32.10
11246;DHT22;59870;50.106;8.580;2022-07-29T16:23:00;33.10;32.40
11246;DHT22;59870;50.106;8.580;2022-07-29T16:25:53;33.10;33.10
11246;DHT22;59870;50.106;8.580;2022-07-29T16:28:27;33.10;34.30
11246;DHT22;59870;50.106;8.580;2022-07-29T16:30:55;33.10;34.80
11246;DHT22;59870;50.106;8.580;2022-07-29T16:33:23;33.00;35.00
11246;DHT22;59870;50.106;8.580;2022-07-29T16:35:52;32.90;35.90
11246;DHT22;59870;50.106;8.580;2022-07-29T16:38:19;32.80;35.90
11246;DHT22;59870;50.106;8.580;2022-07-29T16:40:48;32.80;36.30